Time;durP1;ratioP1;P1;durP2;ratioP2;P2;SDS_P1;SDS_P2;PMS_P1;PMS_P2;Temp;Humidity;BMP_temperature;BMP_pressure;BME280_temperature;BME280_humidity;BME280_pressure;Samples;Min_cycle;Max_cycle;Signal;HPM_P1;HPM_P2
2021/11/12 00:13:08;;;;;;;25.48;14.79;;;;;;;2.87;94.28;99912.78;2327821;68;20291;-77
2021/11/12 00:16:11;;;;;;;24.14;14.75;;;;;;;2.85;94.14;99916.09;2328093;66;23190;-77
2021/11/12 00:19:14;;;;;;;21.45;13.21;;;;;;;2.82;94.21;99910.88;2327535;68;20405;-77
2021/11/12 00:22:20;;;;;;;23.64;14.39;;;;;;;2.79;94.06;99908.19;2329214;68;20883;-77
2021/11/12 00:25:22;;;;;;;22.08;13.66;;;;;;;2.75;94.31;99898.66;2328482;68;20394;-77
2021/11/12 00:28:28;;;;;;;24.71;13.99;;;;;;;2.76;94.37;99905.53;2327715;68;20291;-77
2021/11/12 00:32:01;;;;;;;20.61;13.57;;;;;;;2.77;94.22;99909.84;2322523;66;24225;-77
2021/11/12 00:38:39;;;;;;;17.38;12.56;;;;;;;2.67;94.04;99901.81;2327689;68;20922;-79
2021/11/12 00:41:49;;;;;;;22.06;13.04;;;;;;;2.61;94.11;99917.00;2332581;68;20303;-79
2021/11/12 00:45:03;;;;;;;22.56;13.52;;;;;;;2.57;94.16;99909.16;2327343;68;20320;-79
2021/11/12 00:48:18;;;;;;;19.48;13.31;;;;;;;2.59;94.44;99910.06;2328286;66;25185;-79
2021/11/12 00:51:33;;;;;;;19.42;12.70;;;;;;;2.61;94.52;99893.06;2327887;68;20355;-79
2021/11/12 00:54:37;;;;;;;20.09;12.63;;;;;;;2.62;94.46;99894.78;2328304;68;20332;-79
2021/11/12 00:57:39;;;;;;;21.50;13.05;;;;;;;2.60;94.52;99887.06;2322751;68;20319;-79
2021/11/12 01:00:44;;;;;;;20.50;13.07;;;;;;;2.62;94.67;99885.41;2327702;66;23194;-79
2021/11/12 01:03:47;;;;;;;19.66;12.90;;;;;;;2.65;94.69;99880.38;2328420;68;21519;-79
2021/11/12 01:06:50;;;;;;;25.58;13.16;;;;;;;2.65;94.49;99877.81;2329723;68;20719;-79
2021/11/12 01:09:53;;;;;;;22.23;13.14;;;;;;;2.58;94.23;99880.13;2314074;68;20286;-79
2021/11/12 01:12:58;;;;;;;24.48;12.96;;;;;;;2.56;94.56;99880.09;2328919;68;20305;-79
2021/11/12 01:16:01;;;;;;;28.81;14.02;;;;;;;2.59;94.70;99877.63;2327623;68;20283;-79
2021/11/12 01:19:06;;;;;;;19.41;12.85;;;;;;;2.56;94.58;99876.66;2329738;68;20283;-79
2021/11/12 01:22:09;;;;;;;18.46;11.66;;;;;;;2.53;94.60;99881.66;2328977;68;20283;-79
2021/11/12 01:25:14;;;;;;;27.41;14.16;;;;;;;2.54;94.73;99883.41;2329046;68;21423;-79
2021/11/12 01:28:16;;;;;;;23.46;14.32;;;;;;;2.52;94.61;99891.06;2323113;68;20375;-79
2021/11/12 01:31:28;;;;;;;30.25;15.48;;;;;;;2.51;94.70;99889.28;2327354;66;29100;-79
2021/11/12 01:34:31;;;;;;;24.25;14.00;;;;;;;2.53;94.80;99879.09;2330079;68;20345;-79
2021/11/12 01:37:34;;;;;;;41.14;16.20;;;;;;;2.54;94.82;99884.28;2323076;68;20295;-79
2021/11/12 01:40:37;;;;;;;24.83;14.41;;;;;;;2.53;94.81;99886.78;2328784;68;20283;-79
2021/11/12 01:43:44;;;;;;;23.96;14.21;;;;;;;2.52;94.89;99895.31;2328932;68;20431;-79
2021/11/12 01:49:52;;;;;;;29.40;14.60;;;;;;;2.55;94.81;99880.03;2329641;68;20395;-79
2021/11/12 01:53:07;;;;;;;27.95;15.60;;;;;;;2.56;94.73;99884.34;2329456;68;20856;-79
2021/11/12 01:56:26;;;;;;;29.76;15.60;;;;;;;2.55;94.71;99885.16;2327212;68;20325;-79
2021/11/12 01:59:28;;;;;;;27.26;15.01;;;;;;;2.54;94.79;99868.03;2328298;68;20332;-79
2021/11/12 02:02:31;;;;;;;23.02;12.55;;;;;;;2.56;94.76;99885.22;2328615;66;28254;-79
2021/11/12 02:05:34;;;;;;;20.17;11.34;;;;;;;2.56;94.61;99886.91;2329608;68;20739;-79
2021/11/12 02:08:36;;;;;;;27.85;11.85;;;;;;;2.51;94.57;99883.28;2329464;68;20305;-79
2021/11/12 02:11:40;;;;;;;22.19;12.48;;;;;;;2.49;94.65;99885.78;2330615;68;20342;-79
2021/11/12 02:14:45;;;;;;;22.55;12.20;;;;;;;2.45;94.67;99886.50;2329168;68;20291;-78
2021/11/12 02:17:58;;;;;;;18.76;11.64;;;;;;;2.46;94.73;99889.94;2326467;66;22422;-79
2021/11/12 02:24:22;;;;;;;15.06;10.65;;;;;;;2.46;94.69;99883.13;2329785;68;20318;-79
2021/11/12 02:27:31;;;;;;;16.59;10.73;;;;;;;2.43;94.44;99878.75;2327504;68;20314;-79
2021/11/12 02:30:34;;;;;;;;;;;;;;;2.39;94.44;99874.34;2327252;66;24120;-79
2021/11/12 02:33:37;;;;;;;13.38;8.89;;;;;;;2.35;94.51;99867.38;2329246;68;20103;-79
2021/11/12 02:36:41;;;;;;;15.06;9.63;;;;;;;2.30;94.60;99862.88;2324455;68;21114;-79
2021/11/12 02:39:45;;;;;;;15.18;9.54;;;;;;;2.27;94.75;99865.34;2327928;68;20283;-79
2021/11/12 02:42:48;;;;;;;19.75;9.86;;;;;;;2.28;94.84;99857.72;2328215;68;20921;-79
2021/11/12 02:45:52;;;;;;;13.91;9.68;;;;;;;2.25;94.76;99862.72;2325415;66;23292;-79
2021/11/12 02:48:56;;;;;;;18.19;9.96;;;;;;;2.21;94.76;99863.44;2329439;68;20283;-79
2021/11/12 02:51:58;;;;;;;19.44;9.38;;;;;;;2.22;94.84;99867.75;2328510;68;20317;-79
2021/11/12 02:55:01;;;;;;;18.66;9.38;;;;;;;2.22;94.88;99861.75;2329247;68;20324;-78
2021/11/12 02:58:04;;;;;;;15.73;10.00;;;;;;;2.23;94.99;99855.81;2328830;68;20303;-78
2021/11/12 03:01:09;;;;;;;12.96;9.65;;;;;;;2.22;94.99;99862.63;2314930;66;22873;-79
2021/11/12 03:04:14;;;;;;;17.70;9.27;;;;;;;2.21;94.97;99860.88;2323453;68;20459;-75
2021/11/12 03:07:17;;;;;;;18.67;8.82;;;;;;;2.20;95.04;99855.72;2328889;68;20307;-76
2021/11/12 03:10:20;;;;;;;16.81;9.59;;;;;;;2.18;95.01;99853.09;2329659;68;20294;-76
2021/11/12 03:13:23;;;;;;;13.26;9.02;;;;;;;2.19;95.12;99839.47;2330306;68;20304;-76
2021/11/12 03:16:26;;;;;;;14.26;9.45;;;;;;;2.17;95.00;99843.66;2328427;66;24868;-76
2021/11/12 03:19:30;;;;;;;12.56;8.68;;;;;;;2.16;95.18;99844.47;2328925;68;20307;-76
2021/11/12 03:22:38;;;;;;;22.58;9.35;;;;;;;2.16;95.29;99843.63;2328464;68;20336;-76
2021/11/12 03:25:48;;;;;;;15.21;9.32;;;;;;;2.15;95.01;99836.72;2327684;68;20279;-76
2021/11/12 03:29:10;;;;;;;19.24;9.16;;;;;;;2.12;95.05;99825.53;2328801;68;20173;-76
2021/11/12 04:06:00;;;;;;;13.98;8.71;;;;;;;1.91;95.61;99806.84;2327867;68;20327;-76
2021/11/12 04:19:24;;;;;;;13.29;8.70;;;;;;;2.02;95.65;99791.88;2327701;68;20553;-76
2021/11/12 04:30:39;;;;;;;13.75;8.31;;;;;;;2.07;95.75;99793.78;2327839;68;20302;-76
2021/11/12 05:12:47;;;;;;;11.69;7.72;;;;;;;2.02;94.35;99791.88;2327850;68;20333;-76
2021/11/12 05:46:05;;;;;;;10.38;6.96;;;;;;;1.84;94.13;99799.78;2322791;66;22640;-75
2021/11/12 05:55:59;;;;;;;11.34;6.59;;;;;;;1.74;93.77;99792.56;2328018;68;20315;-76
2021/11/12 05:59:04;;;;;;;10.01;6.24;;;;;;;1.68;93.75;99785.53;2326312;68;20143;-76
2021/11/12 06:02:09;;;;;;;8.81;6.18;;;;;;;1.65;93.83;99770.06;2322820;66;192359;-76
2021/11/12 06:05:17;;;;;;;12.16;6.22;;;;;;;1.61;93.76;99765.63;2327360;68;20574;-75
2021/11/12 06:08:23;;;;;;;10.40;5.99;;;;;;;1.59;93.80;99763.81;2327663;68;20404;-76
2021/11/12 06:11:28;;;;;;;8.51;6.04;;;;;;;1.54;93.79;99766.22;2326686;68;20710;-75
2021/11/12 06:14:39;;;;;;;10.40;6.55;;;;;;;1.50;93.71;99772.91;2312096;68;20326;-75
2021/11/12 06:17:54;;;;;;;15.19;6.39;;;;;;;1.43;93.67;99770.91;2317980;68;758595;-76
2021/11/12 06:20:57;;;;;;;8.63;5.91;;;;;;;1.38;93.57;99779.25;2329749;68;20650;-76
2021/11/12 06:24:00;;;;;;;10.39;6.71;;;;;;;1.35;93.79;99777.44;2322234;68;20295;-76
2021/11/12 06:27:06;;;;;;;8.40;6.31;;;;;;;1.35;93.84;99781.69;2329159;68;20668;-76
2021/11/12 06:30:10;;;;;;;11.94;6.81;;;;;;;1.32;93.83;99777.34;2326439;68;20291;-76
2021/11/12 06:33:12;;;;;;;8.91;6.05;;;;;;;1.35;93.94;99779.13;2328826;66;20283;-76
2021/11/12 06:36:16;;;;;;;13.23;6.99;;;;;;;1.34;94.02;99773.16;2322743;68;20320;-76
2021/11/12 06:39:20;;;;;;;10.41;6.69;;;;;;;1.37;94.11;99777.50;2327253;68;20290;-76
2021/11/12 06:42:23;;;;;;;9.66;5.90;;;;;;;1.34;94.01;99788.50;2328517;68;20448;-76
2021/11/12 06:52:09;;;;;;;11.71;6.34;;;;;;;1.14;93.50;99784.31;2328278;68;20335;-76
2021/11/12 06:55:14;;;;;;;10.84;6.86;;;;;;;1.14;93.86;99784.31;2311677;68;20392;-76
2021/11/12 06:58:17;;;;;;;13.05;6.90;;;;;;;1.12;93.91;99791.91;2327281;68;20816;-76
2021/11/12 07:01:21;;;;;;;10.95;6.20;;;;;;;1.17;94.24;99795.50;2325115;66;28351;-76
2021/11/12 07:04:24;;;;;;;10.88;6.76;;;;;;;1.18;94.26;99794.69;2324878;68;20278;-76
2021/11/12 07:07:28;;;;;;;12.31;6.26;;;;;;;1.19;94.36;99788.78;2328968;68;20307;-79
2021/11/12 07:10:34;;;;;;;11.45;7.11;;;;;;;1.18;94.21;99788.72;2320963;68;20748;-78
2021/11/12 07:13:37;;;;;;;12.41;7.51;;;;;;;1.20;94.41;99787.09;2327906;68;20363;-77
2021/11/12 07:16:40;;;;;;;13.46;6.84;;;;;;;1.25;94.59;99784.69;2326593;66;22381;-78
2021/11/12 07:19:43;;;;;;;11.29;6.29;;;;;;;1.33;94.66;99783.31;2323421;68;20429;-80
2021/11/12 07:22:46;;;;;;;9.98;6.80;;;;;;;1.39;94.54;99791.22;2329959;68;20359;-78
2021/11/12 07:25:50;;;;;;;10.79;6.30;;;;;;;1.43;94.49;99795.63;2327432;68;20295;-79
2021/11/12 07:28:53;;;;;;;10.69;5.89;;;;;;;1.36;93.87;99796.22;2327539;68;21133;-78
2021/11/12 07:32:19;;;;;;;9.34;6.20;;;;;;;1.32;93.83;99802.03;2325283;66;28562;-81
2021/11/12 07:35:26;;;;;;;10.81;6.22;;;;;;;1.32;94.08;99786.69;2327875;68;20867;-78
2021/11/12 07:38:44;;;;;;;10.27;6.29;;;;;;;1.39;94.17;99784.41;2327843;68;20751;-78
2021/11/12 07:45:10;;;;;;;11.06;6.70;;;;;;;1.46;94.07;99778.75;2329379;68;20351;-78
2021/11/12 07:48:13;;;;;;;10.93;6.78;;;;;;;1.52;94.24;99773.84;2322274;68;20135;-78
2021/11/12 07:51:17;;;;;;;9.27;6.39;;;;;;;1.58;94.14;99772.31;2328644;68;20295;-77
2021/11/12 07:54:20;;;;;;;9.23;6.14;;;;;;;1.59;94.09;99767.25;2328623;68;20355;-78
2021/11/12 07:57:23;;;;;;;9.63;6.16;;;;;;;1.64;94.02;99757.22;2327462;68;20785;-78
2021/11/12 08:00:26;;;;;;;9.39;6.35;;;;;;;1.65;93.81;99758.97;2326974;66;21309;-78
2021/11/12 08:03:28;;;;;;;10.79;6.94;;;;;;;1.68;93.68;99766.75;2328696;68;20328;-78
2021/11/12 08:06:32;;;;;;;8.26;5.34;;;;;;;1.68;93.37;99756.50;2327093;68;20271;-79
2021/11/12 08:13:11;;;;;;;9.30;5.89;;;;;;;1.61;92.94;99767.31;2327962;68;20428;-79
2021/11/12 08:19:36;;;;;;;8.64;5.35;;;;;;;1.57;92.99;99748.41;2328552;68;20389;-79
2021/11/12 08:22:59;;;;;;;11.21;6.13;;;;;;;1.47;92.39;99756.59;2328950;68;21467;-79
2021/11/12 08:26:12;;;;;;;10.38;5.44;;;;;;;1.50;93.18;99751.56;2330719;68;20379;-79
2021/11/12 08:33:13;;;;;;;8.95;6.13;;;;;;;1.55;93.52;99742.38;2328821;66;23172;-80
2021/11/12 08:43:06;;;;;;;7.13;5.25;;;;;;;1.81;93.54;99739.09;2329246;68;20362;-78
2021/11/12 08:46:33;;;;;;;9.23;5.81;;;;;;;1.83;93.29;99748.50;2317565;66;23837;-78
2021/11/12 08:49:38;;;;;;;10.25;5.82;;;;;;;1.86;93.18;99749.50;2328036;68;20870;-78
2021/11/12 08:52:41;;;;;;;10.10;6.31;;;;;;;1.85;92.75;99752.00;2329788;68;20291;-78
2021/11/12 08:55:45;;;;;;;9.04;6.50;;;;;;;1.87;92.82;99753.78;2327866;68;20372;-78
2021/11/12 08:58:50;;;;;;;9.60;6.39;;;;;;;1.86;92.64;99753.75;2327277;68;20409;-78
2021/11/12 09:01:54;;;;;;;8.14;5.82;;;;;;;1.86;92.42;99753.75;2326427;66;23443;-78
2021/11/12 09:05:03;;;;;;;7.95;5.49;;;;;;;1.87;92.22;99755.47;2322754;68;20812;-78
2021/11/12 09:08:08;;;;;;;9.74;6.04;;;;;;;1.88;92.07;99755.53;2326401;68;20283;-78
2021/11/12 09:11:11;;;;;;;8.06;6.19;;;;;;;1.88;91.88;99758.09;2327823;68;20384;-78
2021/11/12 09:14:18;;;;;;;10.44;6.10;;;;;;;1.88;91.63;99754.66;2314375;68;20667;-78
2021/11/12 09:17:27;;;;;;;10.35;6.60;;;;;;;1.84;91.47;99746.00;2311026;68;982072;-78
2021/11/12 09:20:45;;;;;;;8.81;6.26;;;;;;;1.77;91.18;99739.78;2326815;68;20356;-78
2021/11/12 09:23:50;;;;;;;10.21;5.51;;;;;;;1.77;91.29;99739.78;2326181;68;20798;-77
2021/11/12 09:26:54;;;;;;;8.69;6.41;;;;;;;1.72;90.88;99741.31;2327287;68;20343;-78
2021/11/12 09:30:23;;;;;;;9.85;6.91;;;;;;;1.69;91.23;99748.00;2313406;68;20288;-78
2021/11/12 09:33:25;;;;;;;8.41;5.94;;;;;;;1.69;91.23;99755.69;2319147;68;20344;-78
2021/11/12 09:36:38;;;;;;;8.01;5.82;;;;;;;1.73;91.33;99755.84;2327107;68;20150;-78
2021/11/12 09:39:41;;;;;;;7.97;5.65;;;;;;;1.78;91.40;99753.44;2308718;68;20158;-78
2021/11/12 09:42:47;;;;;;;8.40;5.90;;;;;;;1.89;91.59;99743.59;2321798;68;20317;-78
2021/11/12 09:45:53;;;;;;;8.74;6.19;;;;;;;1.91;91.47;99740.28;2312732;68;970557;-78
2021/11/12 09:48:59;;;;;;;7.94;6.22;;;;;;;1.94;91.45;99739.50;2326033;68;20306;-78
2021/11/12 09:52:10;;;;;;;11.16;6.25;;;;;;;2.02;91.30;99743.22;2324001;68;20336;-78
2021/11/12 09:55:13;;;;;;;7.22;5.76;;;;;;;2.08;91.19;99744.31;2331438;68;20367;-78
2021/11/12 09:58:19;;;;;;;8.11;5.86;;;;;;;2.14;90.92;99738.50;2322872;68;20420;-78
2021/11/12 10:01:29;;;;;;;6.96;5.31;;;;;;;2.19;90.69;99738.69;2325175;66;34091;-78
2021/11/12 10:04:34;;;;;;;7.64;5.51;;;;;;;2.23;90.37;99725.16;2312391;68;20339;-78
2021/11/12 10:07:38;;;;;;;8.21;5.82;;;;;;;2.25;90.12;99726.94;2326505;68;20279;-79
2021/11/12 10:10:47;;;;;;;7.25;5.44;;;;;;;2.29;90.04;99710.84;2329479;68;20319;-78
2021/11/12 10:13:59;;;;;;;6.59;5.05;;;;;;;2.33;89.77;99719.50;2327417;68;20367;-79
2021/11/12 10:17:03;;;;;;;7.28;5.38;;;;;;;2.34;89.46;99728.97;2320803;68;20391;-78
2021/11/12 10:20:36;;;;;;;7.11;5.79;;;;;;;2.23;89.17;99715.78;2327884;68;20385;-78
2021/11/12 10:23:53;;;;;;;7.49;5.64;;;;;;;2.29;89.39;99710.00;2312747;68;20707;-78
2021/11/12 10:27:17;;;;;;;7.03;5.43;;;;;;;2.37;89.51;99726.50;2327528;68;20271;-78
2021/11/12 10:30:25;;;;;;;6.44;5.24;;;;;;;2.40;89.54;99716.34;2311028;66;20839;-78
2021/11/12 10:33:39;;;;;;;9.81;6.75;;;;;;;2.47;89.63;99713.16;2326808;68;20287;-78
2021/11/12 10:37:12;;;;;;;11.43;7.05;;;;;;;2.53;nan;99715.06;2327364;68;20299;-78
2021/11/12 10:40:26;;;;;;;9.13;6.04;;;;;;;2.58;89.34;99704.16;2327668;68;20392;-78
2021/11/12 10:43:39;;;;;;;12.25;8.02;;;;;;;2.56;88.94;99703.22;2312285;68;20704;-78
2021/11/12 10:47:08;;;;;;;8.79;6.24;;;;;;;2.64;89.13;99694.06;2312094;68;20299;-78
2021/11/12 10:50:21;;;;;;;7.51;5.34;;;;;;;2.69;88.93;99681.41;2331470;68;20336;-78
2021/11/12 10:53:52;;;;;;;6.94;5.25;;;;;;;2.65;88.54;99672.75;2325843;68;20167;-78
2021/11/12 10:56:57;;;;;;;6.05;5.43;;;;;;;2.70;88.63;99665.22;2326419;68;20366;-78
2021/11/12 11:00:19;;;;;;;6.74;5.68;;;;;;;2.78;88.69;99671.44;2321768;68;20877;-77
2021/11/12 11:03:26;;;;;;;6.71;5.22;;;;;;;2.79;88.20;99662.94;2310662;68;20291;-77
2021/11/12 11:06:30;;;;;;;7.16;5.18;;;;;;;2.66;87.54;99658.22;2325765;68;20347;-78
2021/11/12 11:09:37;;;;;;;6.79;5.81;;;;;;;2.65;87.74;99654.81;2327212;68;20311;-76
2021/11/12 11:12:43;;;;;;;9.23;6.14;;;;;;;2.72;88.11;99636.25;2325391;68;20291;-76
2021/11/12 11:15:52;;;;;;;7.00;5.15;;;;;;;2.78;88.02;99634.69;2324660;66;21832;-76
2021/11/12 11:18:56;;;;;;;8.38;5.64;;;;;;;2.78;87.98;99632.97;2325848;68;20472;-76
2021/11/12 11:22:06;;;;;;;8.21;5.41;;;;;;;2.86;88.57;99628.94;2325599;68;20213;-76
2021/11/12 11:25:10;;;;;;;8.49;6.07;;;;;;;2.94;88.57;99622.38;2328235;68;20302;-75
2021/11/12 11:28:13;;;;;;;9.76;6.50;;;;;;;3.09;88.80;99619.38;2326340;68;20311;-75
2021/11/12 11:31:17;;;;;;;8.41;6.46;;;;;;;3.19;88.54;99615.38;2323941;66;22727;-75
2021/11/12 11:34:22;;;;;;;9.48;6.36;;;;;;;3.27;88.51;99611.34;2327274;68;20294;-75
2021/11/12 11:37:26;;;;;;;8.71;6.16;;;;;;;3.30;88.00;99607.16;2321308;68;20366;-75
2021/11/12 11:40:29;;;;;;;7.74;6.32;;;;;;;3.26;87.29;99610.47;2325271;68;21192;-75
2021/11/12 11:43:32;;;;;;;8.31;6.46;;;;;;;3.23;87.11;99606.91;2325980;68;20303;-76
2021/11/12 11:46:38;;;;;;;9.63;6.53;;;;;;;3.23;87.03;99592.44;2326727;66;20303;-78
2021/11/12 11:49:50;;;;;;;10.23;6.79;;;;;;;3.28;87.33;99595.13;2326640;68;20312;-77
2021/11/12 11:53:22;;;;;;;11.02;6.78;;;;;;;3.33;87.35;99601.25;2324956;68;20328;-78
2021/11/12 11:56:30;;;;;;;8.59;6.82;;;;;;;3.40;87.45;99613.41;2325367;68;20359;-79
2021/11/12 11:59:35;;;;;;;9.59;7.11;;;;;;;3.46;87.13;99620.41;2321040;68;20348;-78
2021/11/12 12:02:38;;;;;;;10.02;7.16;;;;;;;3.51;87.09;99599.16;2326146;66;27371;-77
2021/11/12 12:06:07;;;;;;;11.18;7.15;;;;;;;3.54;86.75;99601.81;2330672;68;20389;-78
2021/11/12 12:09:14;;;;;;;8.61;6.95;;;;;;;3.54;86.43;99606.94;2330611;68;20283;-78
2021/11/12 12:12:31;;;;;;;9.59;7.30;;;;;;;3.59;86.58;99600.25;2329291;68;20168;-79
2021/11/12 12:15:36;;;;;;;8.73;6.96;;;;;;;3.68;86.70;99585.91;2326785;67;21915;-78
2021/11/12 12:18:48;;;;;;;9.56;6.96;;;;;;;3.70;86.54;99569.72;2327405;68;20494;-78
2021/11/12 12:22:10;;;;;;;8.04;6.40;;;;;;;3.70;85.86;99561.16;2326936;68;20302;-78
2021/11/12 12:33:07;;;;;;;8.91;6.50;;;;;;;3.74;85.65;99573.22;2325569;66;22416;-78
2021/11/12 12:36:02;;;;;;;8.94;6.63;;;;;;;3.76;85.66;99569.84;2327483;68;20320;-78
2021/11/12 13:20:47;;;;;;;9.41;7.46;;;;;;;3.89;84.84;99558.19;2325278;68;20283;-78
2021/11/12 13:24:04;;;;;;;9.84;7.47;;;;;;;3.83;84.55;99553.78;2325750;68;20283;-78
2021/11/12 13:27:33;;;;;;;8.89;7.05;;;;;;;3.85;84.77;99547.00;2325311;68;20397;-78
2021/11/12 13:30:42;;;;;;;9.27;7.30;;;;;;;3.90;84.79;99531.69;2320182;68;20371;-78
2021/11/12 13:34:01;;;;;;;8.15;6.56;;;;;;;3.92;84.83;99536.03;2316400;68;20324;-78
2021/11/12 13:37:19;;;;;;;8.36;6.81;;;;;;;3.98;84.86;99529.31;2325338;68;20297;-78
2021/11/12 13:40:22;;;;;;;9.52;7.05;;;;;;;3.99;84.60;99525.91;2325302;68;20798;-78
2021/11/12 13:43:26;;;;;;;9.32;7.50;;;;;;;3.94;84.11;99525.78;2325308;68;20845;-78
2021/11/12 13:46:55;;;;;;;9.79;8.02;;;;;;;3.94;84.25;99531.78;2323147;66;20630;-78
2021/11/12 13:50:03;;;;;;;8.95;7.54;;;;;;;3.96;84.37;99526.72;2324834;68;20267;-78
2021/11/12 13:53:07;;;;;;;10.20;8.23;;;;;;;3.91;84.09;99526.59;2323771;68;20208;-78
2021/11/12 13:56:10;;;;;;;8.71;7.76;;;;;;;3.90;84.57;99518.84;2323771;68;20167;-78
2021/11/12 13:59:14;;;;;;;9.75;7.76;;;;;;;3.89;84.54;99514.53;2325002;68;20279;-78
2021/11/12 14:02:17;;;;;;;10.89;8.10;;;;;;;3.84;84.81;99511.00;2322752;66;49614;-78
2021/11/12 14:05:22;;;;;;;10.73;8.34;;;;;;;3.77;84.86;99493.69;2324724;68;20295;-78
2021/11/12 14:08:43;;;;;;;11.63;8.73;;;;;;;3.75;85.14;99497.94;2324888;68;20287;-78
2021/11/12 14:11:46;;;;;;;12.36;8.94;;;;;;;3.80;85.60;99502.38;2323344;68;20306;-78
2021/11/12 14:15:10;;;;;;;10.76;8.14;;;;;;;3.85;85.76;99495.63;2325149;68;20287;-78
2021/11/12 14:21:48;;;;;;;10.64;8.49;;;;;;;3.93;86.20;99490.66;2325297;68;20810;-79
2021/11/12 14:24:59;;;;;;;11.77;8.84;;;;;;;3.93;85.92;99488.97;2323562;68;20291;-78
2021/11/12 14:28:13;;;;;;;12.40;8.76;;;;;;;3.87;85.85;99478.56;2320190;68;20275;-78
2021/11/12 14:45:02;;;;;;;15.35;10.45;;;;;;;3.83;85.93;99475.88;2318269;68;20295;-78
2021/11/12 14:48:27;;;;;;;18.27;11.03;;;;;;;3.80;85.95;99493.78;2323703;66;24318;-78
2021/11/12 14:51:41;;;;;;;17.36;10.81;;;;;;;3.74;85.74;99497.06;2323371;68;20198;-78
2021/11/12 14:55:01;;;;;;;15.88;11.68;;;;;;;3.69;85.73;99496.09;2324002;68;20287;-78
2021/11/12 14:58:04;;;;;;;16.80;11.61;;;;;;;3.70;85.98;99494.38;2323763;68;20376;-77
2021/11/12 15:01:13;;;;;;;17.38;12.10;;;;;;;3.71;86.27;99501.25;2323225;66;24876;-78
2021/11/12 15:04:17;;;;;;;17.63;12.65;;;;;;;3.70;86.39;99504.66;2325375;68;20343;-78
2021/11/12 15:07:25;;;;;;;16.86;12.38;;;;;;;3.72;86.50;99513.25;2323267;68;20291;-78
2021/11/12 15:10:31;;;;;;;18.13;11.91;;;;;;;3.67;86.31;99508.03;2325767;68;20789;-80
2021/11/12 15:13:36;;;;;;;17.66;12.60;;;;;;;3.66;86.34;99518.25;2324126;68;20307;-78
2021/11/12 15:16:40;;;;;;;18.29;12.75;;;;;;;3.59;86.30;99515.53;2323319;66;26799;-78
2021/11/12 15:19:46;;;;;;;20.29;13.31;;;;;;;3.54;86.38;99519.66;2321189;68;20301;-78
2021/11/12 15:32:35;;;;;;;22.60;13.43;;;;;;;3.45;87.44;99496.34;2323138;66;21517;-78
2021/11/12 15:35:39;;;;;;;19.72;13.60;;;;;;;3.46;87.57;99482.69;2323809;68;20343;-78
2021/11/12 15:38:52;;;;;;;24.49;15.69;;;;;;;3.42;87.56;99483.44;2324844;68;20254;-78
2021/11/12 15:42:21;;;;;;;22.80;15.02;;;;;;;3.41;87.59;99478.25;2323334;68;20291;-78
2021/11/12 15:46:09;;;;;;;24.01;14.63;;;;;;;3.39;87.78;99473.06;2323429;66;28014;-78
2021/11/12 15:48:50;;;;;;;24.94;15.79;;;;;;;3.39;88.02;99475.63;2323182;68;20163;-77
2021/11/12 15:52:00;;;;;;;29.24;16.02;;;;;;;3.39;88.02;99475.63;2324634;68;20784;-77
2021/11/12 16:15:31;;;;;;;26.52;16.88;;;;;;;3.33;89.13;99491.75;2324856;68;20297;-78
2021/11/12 16:25:09;;;;;;;27.50;17.56;;;;;;;3.30;89.39;99495.94;2325041;68;21107;-79
2021/11/12 16:28:21;;;;;;;31.05;18.20;;;;;;;3.30;89.39;99499.38;2327183;68;20291;-78
2021/11/12 16:31:28;;;;;;;27.16;16.58;;;;;;;3.33;89.32;99501.16;2324483;67;24665;-79
2021/11/12 16:34:35;;;;;;;29.35;17.92;;;;;;;3.32;89.30;99509.69;2325613;68;20334;-78
2021/11/12 16:37:40;;;;;;;28.49;18.12;;;;;;;3.32;89.35;99504.56;2320453;68;20295;-79
2021/11/12 16:40:46;;;;;;;28.30;17.42;;;;;;;3.32;89.31;99509.69;2325745;68;20199;-79
2021/11/12 16:44:15;;;;;;;26.89;17.34;;;;;;;3.31;89.25;99508.81;2326480;68;20295;-78
2021/11/12 16:50:45;;;;;;;36.08;22.19;;;;;;;3.29;89.41;99504.47;2325695;68;20180;-78
2021/11/12 17:10:17;;;;;;;24.16;16.19;;;;;;;3.25;89.40;99487.28;2324549;68;20405;-78
2021/11/12 17:23:25;;;;;;;29.54;17.84;;;;;;;3.19;89.63;99487.09;2325618;68;20305;-78
2021/11/12 18:02:59;;;;;;;35.13;21.05;;;;;;;2.87;89.73;99504.16;2323793;66;24382;-78
2021/11/12 18:22:19;;;;;;;29.65;19.01;;;;;;;2.76;90.44;99460.28;2324172;68;20302;-78
2021/11/12 21:45:13;;;;;;;25.76;16.41;;;;;;;2.79;92.31;99375.78;2325511;68;20383;-78
2021/11/12 21:48:18;;;;;;;25.65;15.84;;;;;;;2.80;92.29;99371.50;2325491;68;20321;-79
2021/11/12 21:51:24;;;;;;;27.16;16.98;;;;;;;2.80;92.25;99371.50;2326357;68;20471;-79
2021/11/12 21:55:07;;;;;;;28.41;17.40;;;;;;;2.78;92.38;99358.66;2305363;69;20411;-79
2021/11/12 21:58:10;;;;;;;27.74;17.65;;;;;;;2.80;92.57;99359.56;2306947;69;20299;-79
2021/11/12 22:01:14;;;;;;;29.13;17.05;;;;;;;2.77;92.59;99362.03;2306277;66;22294;-79
2021/11/12 22:04:30;;;;;;;31.36;18.02;;;;;;;2.86;92.83;99353.72;2070441;77;20695;-78
2021/11/12 22:07:36;;;;;;;30.98;18.17;;;;;;;2.79;92.67;99355.25;2071961;78;20288;-79
2021/11/12 22:10:39;;;;;;;29.46;18.06;;;;;;;2.83;92.85;99345.94;2070619;78;20344;-78
2021/11/12 22:13:42;;;;;;;28.27;17.86;;;;;;;2.86;92.73;99340.88;2067639;78;20312;-78
2021/11/12 22:16:45;;;;;;;28.75;17.20;;;;;;;2.84;92.76;99332.28;2058071;76;55927;-78
2021/11/12 22:19:48;;;;;;;32.74;18.41;;;;;;;2.85;92.83;99329.75;2050932;79;20303;-78
2021/11/12 22:22:51;;;;;;;30.90;18.19;;;;;;;2.87;92.75;99323.00;2053091;79;20844;-78
2021/11/12 22:25:55;;;;;;;31.01;17.51;;;;;;;2.87;92.69;99335.81;2052599;79;20303;-78
2021/11/12 22:28:58;;;;;;;26.21;16.66;;;;;;;2.88;92.74;99337.56;2051510;79;20334;-78
2021/11/12 22:32:01;;;;;;;25.86;16.75;;;;;;;2.91;92.77;99345.31;2103267;69;20343;-78
2021/11/12 22:35:15;;;;;;;25.51;16.40;;;;;;;2.85;92.62;99357.09;2029479;79;20361;-78
2021/11/12 22:38:18;;;;;;;25.05;15.90;;;;;;;2.82;92.80;99360.47;2040017;79;20801;-78
2021/11/12 22:41:21;;;;;;;26.13;16.77;;;;;;;2.83;92.76;99358.75;2041514;79;20325;-78
2021/11/12 22:44:23;;;;;;;26.15;16.02;;;;;;;2.85;92.85;99347.72;2040571;79;20354;-78
2021/11/12 22:47:27;;;;;;;27.41;16.45;;;;;;;2.81;92.78;99343.34;2038908;76;21745;-77
2021/11/12 22:50:30;;;;;;;28.55;17.49;;;;;;;2.82;93.05;99342.50;2038938;79;20432;-78
2021/11/12 22:53:32;;;;;;;28.94;16.86;;;;;;;2.82;93.04;99350.19;2040435;79;20333;-77
2021/11/12 22:56:35;;;;;;;25.88;16.59;;;;;;;2.76;92.91;99365.44;2041751;79;20378;-78
2021/11/12 22:59:38;;;;;;;25.13;15.60;;;;;;;2.79;93.24;99369.78;2041388;79;20516;-78
2021/11/12 23:02:40;;;;;;;22.94;15.06;;;;;;;2.80;93.18;99362.13;2038711;77;27997;-78
2021/11/12 23:05:43;;;;;;;24.40;15.56;;;;;;;2.82;93.21;99375.84;2041732;79;20327;-78
2021/11/12 23:08:46;;;;;;;27.80;16.20;;;;;;;2.86;93.12;99379.34;2038796;79;20745;-78
2021/11/12 23:11:48;;;;;;;25.01;16.77;;;;;;;2.85;93.09;99378.47;2040575;79;20866;-78
2021/11/12 23:14:51;;;;;;;26.06;15.88;;;;;;;2.84;93.20;99369.06;2037798;79;20325;-78
2021/11/12 23:17:54;;;;;;;28.88;16.88;;;;;;;2.85;93.26;99368.22;2035915;77;22566;-78
2021/11/12 23:21:03;;;;;;;29.50;17.95;;;;;;;2.89;93.23;99367.50;2036470;79;20812;-78
2021/11/12 23:24:05;;;;;;;34.39;18.40;;;;;;;2.89;93.14;99356.38;2037123;79;20345;-78
2021/11/12 23:27:08;;;;;;;31.80;18.04;;;;;;;2.91;93.19;99349.59;2037661;79;20329;-78
2021/11/12 23:30:12;;;;;;;30.49;18.38;;;;;;;2.91;93.00;99345.31;2036446;79;20701;-77
2021/11/12 23:33:15;;;;;;;28.16;17.77;;;;;;;2.88;92.89;99345.25;2036276;77;24681;-78
2021/11/12 23:36:18;;;;;;;27.54;16.59;;;;;;;2.83;92.90;99339.13;2037013;79;20920;-77
2021/11/12 23:39:21;;;;;;;28.09;17.26;;;;;;;2.81;93.03;99340.78;2036084;79;20302;-77
2021/11/12 23:42:24;;;;;;;32.58;18.35;;;;;;;2.80;93.02;99339.03;2036760;79;20337;-78
2021/11/12 23:45:29;;;;;;;29.04;17.11;;;;;;;2.79;93.23;99345.00;2034543;76;22286;-77
2021/11/12 23:48:32;;;;;;;27.59;16.89;;;;;;;2.79;93.32;99342.44;2032934;79;20502;-78
2021/11/12 23:51:34;;;;;;;28.70;17.59;;;;;;;2.82;93.37;99339.94;2036949;79;20378;-78
2021/11/12 23:54:37;;;;;;;27.67;16.76;;;;;;;2.82;93.33;99334.81;2036890;79;21268;-78
2021/11/12 23:57:42;;;;;;;26.89;17.50;;;;;;;2.84;93.34;99337.41;2034131;79;20444;-78
